DEHEN EDDL-EDDG
Flight info
| Callsign | DEHEN |
|---|---|
| Flight time | N/A |
| Altitude | |
| Route | |
| Aircraft | DC3 |
Departure
| Time | 2026-05-07 17:43 |
|---|---|
| Airport | Düsseldorf Airport (EDDL) |
Arrival
| Time | N/A |
|---|---|
| Airport | Münster Osnabrück Airport (EDDG) |
| Time | Latitude | Longitude | Altitude | Speed | Heading |
|---|---|---|---|---|---|
| 2026-05-07 17:34 | 51.27386 | 6.75319 | 115 ft | 0 kts | 80° |
| 2026-05-07 17:36 | 51.27387 | 6.75326 | 116 ft | 0 kts | 77° |
| 2026-05-07 17:37 | 51.27389 | 6.75334 | 116 ft | 1 kts | 4° |
| 2026-05-07 17:37 | 51.27426 | 6.75323 | 117 ft | 9 kts | 346° |
| 2026-05-07 17:37 | 51.27459 | 6.75321 | 117 ft | 5 kts | 48° |
| 2026-05-07 17:37 | 51.27464 | 6.75413 | 120 ft | 10 kts | 77° |
| 2026-05-07 17:38 | 51.27506 | 6.75545 | 120 ft | 13 kts | 60° |
| 2026-05-07 17:38 | 51.27584 | 6.75543 | 119 ft | 16 kts | 336° |
| 2026-05-07 17:38 | 51.27702 | 6.75459 | 118 ft | 17 kts | 340° |
| 2026-05-07 17:38 | 51.27780 | 6.75398 | 117 ft | 8 kts | 334° |
| 2026-05-07 17:39 | 51.27826 | 6.75363 | 117 ft | 8 kts | 332° |
| 2026-05-07 17:39 | 51.27843 | 6.75349 | 116 ft | 0 kts | 335° |
| 2026-05-07 17:39 | 51.27872 | 6.75325 | 114 ft | 10 kts | 332° |
| 2026-05-07 17:39 | 51.27940 | 6.75265 | 113 ft | 1 kts | 331° |
| 2026-05-07 17:40 | 51.27945 | 6.75261 | 113 ft | 4 kts | 335° |
| 2026-05-07 17:40 | 51.27998 | 6.75278 | 112 ft | 13 kts | 49° |
| 2026-05-07 17:40 | 51.28020 | 6.75326 | 112 ft | 0 kts | 52° |
| 2026-05-07 17:42 | 51.28140 | 6.75580 | 116 ft | 68 kts | 52° |
| 2026-05-07 17:42 | 51.28522 | 6.76379 | 229 ft | 108 kts | 51° |
| 2026-05-07 17:42 | 51.29006 | 6.77390 | 458 ft | 114 kts | 53° |
| 2026-05-07 17:42 | 51.29461 | 6.78390 | 651 ft | 107 kts | 54° |
| 2026-05-07 17:43 | 51.29879 | 6.79364 | 843 ft | 107 kts | 54° |
| 2026-05-07 17:43 | 51.30346 | 6.80298 | 946 ft | 109 kts | 32° |
| 2026-05-07 17:43 | 51.31092 | 6.80302 | 996 ft | 114 kts | 331° |
| 2026-05-07 17:43 | 51.31740 | 6.79616 | 1097 ft | 113 kts | 325° |
| 2026-05-07 17:44 | 51.32394 | 6.78922 | 1204 ft | 111 kts | 321° |
| 2026-05-07 17:44 | 51.32634 | 6.77801 | 1276 ft | 114 kts | 261° |
| 2026-05-07 17:44 | 51.32214 | 6.76736 | 1331 ft | 117 kts | 228° |
| 2026-05-07 17:44 | 51.31671 | 6.75760 | 1424 ft | 117 kts | 229° |
| 2026-05-07 17:45 | 51.31125 | 6.74791 | 1488 ft | 118 kts | 228° |
| 2026-05-07 17:45 | 51.30559 | 6.73798 | 1524 ft | 121 kts | 229° |
| 2026-05-07 17:45 | 51.29995 | 6.72792 | 1593 ft | 120 kts | 227° |
| 2026-05-07 17:45 | 51.29423 | 6.71783 | 1587 ft | 126 kts | 229° |
| 2026-05-07 17:46 | 51.28844 | 6.70729 | 1620 ft | 125 kts | 230° |
| 2026-05-07 17:46 | 51.28287 | 6.69746 | 1625 ft | 111 kts | 220° |
| 2026-05-07 17:46 | 51.27568 | 6.69511 | 1456 ft | 109 kts | 167° |
| 2026-05-07 17:46 | 51.26949 | 6.70146 | 1325 ft | 108 kts | 143° |
| 2026-05-07 17:47 | 51.26400 | 6.71057 | 1269 ft | 122 kts | 115° |
| 2026-05-07 17:47 | 51.26564 | 6.72333 | 1057 ft | 126 kts | 51° |
| 2026-05-07 17:47 | 51.27107 | 6.73471 | 701 ft | 126 kts | 52° |
| 2026-05-07 17:47 | 51.27629 | 6.74551 | 408 ft | 122 kts | 52° |
| 2026-05-07 17:48 | 51.28148 | 6.75595 | 159 ft | 116 kts | 51° |
| 2026-05-07 17:48 | 51.28602 | 6.76573 | 135 ft | 110 kts | 51° |
| 2026-05-07 17:48 | 51.29091 | 6.77590 | 168 ft | 117 kts | 52° |
| 2026-05-07 17:48 | 51.29540 | 6.78508 | 501 ft | 99 kts | 50° |
| 2026-05-07 17:49 | 51.29962 | 6.79371 | 716 ft | 100 kts | 51° |
| 2026-05-07 17:49 | 51.30299 | 6.80349 | 849 ft | 104 kts | 81° |
| 2026-05-07 17:49 | 51.30090 | 6.81429 | 979 ft | 107 kts | 133° |
| 2026-05-07 17:49 | 51.29501 | 6.82179 | 1081 ft | 107 kts | 153° |
| 2026-05-07 17:50 | 51.28776 | 6.82137 | 1160 ft | 110 kts | 213° |
| 2026-05-07 17:50 | 51.28266 | 6.81187 | 1181 ft | 116 kts | 235° |
| 2026-05-07 17:50 | 51.27797 | 6.80135 | 1249 ft | 118 kts | 234° |
| 2026-05-07 17:50 | 51.27313 | 6.79066 | 1300 ft | 120 kts | 235° |
| 2026-05-07 17:51 | 51.26828 | 6.77971 | 1337 ft | 121 kts | 236° |
| 2026-05-07 17:51 | 51.26348 | 6.76844 | 1343 ft | 124 kts | 237° |
| 2026-05-07 17:51 | 51.25879 | 6.75672 | 1354 ft | 124 kts | 238° |
| 2026-05-07 17:51 | 51.25435 | 6.74491 | 1320 ft | 124 kts | 240° |
| 2026-05-07 17:52 | 51.25329 | 6.73167 | 1270 ft | 125 kts | 282° |
| 2026-05-07 17:52 | 51.25736 | 6.72095 | 1098 ft | 115 kts | 323° |
| 2026-05-07 17:52 | 51.26454 | 6.72021 | 898 ft | 110 kts | 38° |
| 2026-05-07 17:52 | 51.26913 | 6.73011 | 630 ft | 112 kts | 51° |
| 2026-05-07 17:53 | 51.27380 | 6.74003 | 430 ft | 111 kts | 53° |
| 2026-05-07 17:53 | 51.27839 | 6.74975 | 272 ft | 109 kts | 52° |
| 2026-05-07 17:53 | 51.28337 | 6.76015 | 440 ft | 123 kts | 51° |
| 2026-05-07 17:53 | 51.28869 | 6.77111 | 729 ft | 125 kts | 51° |
| 2026-05-07 17:54 | 51.29396 | 6.78222 | 989 ft | 129 kts | 52° |
| 2026-05-07 17:54 | 51.29939 | 6.79404 | 1096 ft | 137 kts | 53° |
| 2026-05-07 17:54 | 51.29922 | 6.80803 | 1217 ft | 135 kts | 123° |
| 2026-05-07 17:54 | 51.29182 | 6.81756 | 1218 ft | 142 kts | 147° |
| 2026-05-07 17:55 | 51.28300 | 6.81817 | 1291 ft | 136 kts | 213° |
| 2026-05-07 17:55 | 51.27711 | 6.80612 | 1223 ft | 140 kts | 237° |
| 2026-05-07 17:55 | 51.27187 | 6.79359 | 1217 ft | 129 kts | 237° |
| 2026-05-07 17:55 | 51.26704 | 6.78196 | 1380 ft | 104 kts | 237° |
| 2026-05-07 17:56 | 51.26417 | 6.77480 | 1148 ft | 133 kts | 238° |
| 2026-05-07 17:56 | 51.25959 | 6.76251 | 1168 ft | 127 kts | 240° |